createdAt,value
2018-03-24T00:01:56.108Z,18.47
2018-03-24T00:04:30.576Z,19.27
2018-03-24T00:07:04.873Z,18.60
2018-03-24T00:09:38.719Z,16.93
2018-03-24T00:12:13.202Z,19.00
2018-03-24T00:14:47.271Z,18.40
2018-03-24T00:17:21.108Z,20.00
2018-03-24T00:19:55.083Z,18.50
2018-03-24T00:22:28.787Z,18.70
2018-03-24T00:25:03.287Z,19.60
2018-03-24T00:27:37.353Z,21.67
2018-03-24T00:30:11.565Z,19.87
2018-03-24T00:32:45.887Z,19.70
2018-03-24T00:35:19.768Z,19.40
2018-03-24T00:37:55.053Z,19.63
2018-03-24T00:40:29.391Z,19.07
2018-03-24T00:43:03.041Z,19.37
2018-03-24T00:45:36.895Z,19.10
2018-03-24T00:48:10.768Z,19.30
2018-03-24T00:50:45.311Z,20.23
2018-03-24T00:53:19.352Z,19.90
2018-03-24T00:55:53.231Z,21.10
2018-03-24T00:58:26.971Z,21.60
2018-03-24T01:01:00.926Z,21.00
2018-03-24T01:03:35.363Z,19.27
2018-03-24T01:06:09.325Z,22.10
2018-03-24T01:08:43.104Z,20.73
2018-03-24T01:11:18.202Z,20.73
2018-03-24T01:13:53.446Z,21.13
2018-03-24T01:16:27.602Z,20.83
2018-03-24T01:19:01.362Z,21.90
2018-03-24T01:21:35.623Z,20.93
2018-03-24T01:24:09.296Z,20.97
2018-03-24T01:26:42.990Z,21.90
2018-03-24T01:29:17.524Z,21.20
2018-03-24T01:31:52.460Z,21.20
2018-03-24T01:34:26.616Z,21.60
2018-03-24T01:37:00.279Z,21.50
2018-03-24T01:39:34.184Z,23.40
2018-03-24T01:42:08.206Z,21.47
2018-03-24T01:44:42.715Z,21.93
2018-03-24T01:47:16.467Z,23.07
2018-03-24T01:49:50.129Z,22.20
2018-03-24T01:52:23.992Z,20.73
2018-03-24T01:54:58.571Z,22.70
2018-03-24T01:57:32.688Z,20.97
2018-03-24T02:00:07.253Z,19.80
2018-03-24T02:02:42.116Z,19.97
2018-03-24T02:05:16.936Z,20.33
2018-03-24T02:07:51.183Z,21.17
2018-03-24T02:10:24.845Z,19.77
2018-03-24T02:15:39.612Z,22.17
2018-03-24T02:18:13.563Z,21.77
2018-03-24T02:20:48.077Z,21.70
2018-03-24T02:23:22.788Z,22.93
2018-03-24T02:25:56.838Z,22.47
2018-03-24T02:28:30.640Z,23.83
2018-03-24T02:31:05.245Z,22.10
2018-03-24T02:33:39.297Z,22.40
2018-03-24T02:36:12.954Z,23.17
2018-03-24T02:38:46.786Z,21.63
2018-03-24T02:41:20.633Z,22.63
2018-03-24T02:43:54.301Z,22.30
2018-03-24T02:46:28.238Z,21.60
2018-03-24T02:49:02.139Z,23.60
2018-03-24T02:51:35.877Z,23.43
2018-03-24T02:54:09.773Z,23.70
2018-03-24T02:56:44.448Z,24.47
2018-03-24T02:59:18.668Z,23.60
2018-03-24T03:01:53.373Z,24.23
2018-03-24T03:04:28.168Z,23.70
2018-03-24T03:07:02.346Z,22.37
2018-03-24T03:09:36.279Z,23.90
2018-03-24T03:12:10.932Z,24.43
2018-03-24T03:14:44.974Z,24.80
2018-03-24T03:17:18.538Z,23.57
2018-03-24T03:19:52.389Z,23.40
2018-03-24T03:22:26.303Z,23.47
2018-03-24T03:25:00.088Z,22.07
2018-03-24T03:27:34.621Z,23.70
2018-03-24T03:30:15.509Z,23.60
2018-03-24T03:32:49.791Z,25.57
2018-03-24T03:35:24.704Z,24.03
2018-03-24T03:37:58.980Z,22.27
2018-03-24T03:40:32.849Z,24.40
2018-03-24T03:43:07.577Z,22.80
2018-03-24T03:45:41.774Z,24.23
2018-03-24T03:48:15.467Z,24.33
2018-03-24T03:50:49.208Z,23.67
2018-03-24T03:53:23.021Z,24.03
2018-03-24T03:58:35.506Z,27.47
2018-03-24T04:01:09.726Z,24.20
2018-03-24T04:03:43.358Z,24.00
2018-03-24T04:06:17.224Z,26.17
2018-03-24T04:08:50.996Z,26.37
2018-03-24T04:11:24.871Z,25.50
2018-03-24T04:13:59.580Z,23.97
2018-03-24T04:16:33.765Z,24.17
2018-03-24T04:19:08.853Z,26.10
2018-03-24T04:21:42.821Z,25.03
2018-03-24T04:24:17.275Z,25.00
2018-03-24T04:26:51.207Z,24.77
2018-03-24T04:29:25.812Z,26.13
2018-03-24T04:31:59.848Z,25.47
2018-03-24T04:34:33.733Z,24.47
2018-03-24T04:37:08.447Z,25.20
2018-03-24T04:39:42.491Z,25.30
2018-03-24T04:42:16.583Z,25.50
2018-03-24T04:44:50.355Z,24.97
2018-03-24T04:47:24.248Z,25.10
2018-03-24T04:49:58.714Z,23.40
2018-03-24T04:52:32.745Z,25.87
2018-03-24T04:55:06.770Z,25.20
2018-03-24T04:57:40.775Z,26.03
2018-03-24T05:00:15.372Z,24.73
2018-03-24T05:02:49.496Z,24.70
2018-03-24T05:05:23.408Z,26.20
2018-03-24T05:07:57.137Z,24.23
2018-03-24T05:10:30.843Z,25.83
2018-03-24T05:13:05.541Z,27.07
2018-03-24T05:15:39.584Z,25.83
2018-03-24T05:18:13.593Z,26.47
2018-03-24T05:20:48.248Z,26.70
2018-03-24T05:23:23.106Z,25.60
2018-03-24T05:25:57.288Z,25.67
2018-03-24T05:28:31.083Z,28.20
2018-03-24T05:31:04.893Z,25.83
2018-03-24T05:33:38.883Z,24.93
2018-03-24T05:36:13.469Z,26.23
2018-03-24T05:38:48.285Z,27.90
2018-03-24T05:41:23.099Z,26.00
2018-03-24T05:43:57.156Z,25.97
2018-03-24T05:46:30.858Z,26.50
2018-03-24T05:49:05.457Z,25.90
2018-03-24T05:51:39.527Z,25.60
2018-03-24T05:54:13.243Z,26.47
2018-03-24T05:56:47.124Z,27.83
2018-03-24T05:59:21.120Z,26.07
2018-03-24T06:01:55.147Z,27.27
2018-03-24T06:04:29.713Z,25.80
2018-03-24T06:07:04.095Z,26.23
2018-03-24T06:09:37.994Z,25.90
2018-03-24T06:12:11.793Z,24.70
2018-03-24T06:14:45.595Z,25.70
2018-03-24T06:17:19.391Z,25.53
2018-03-24T06:19:54.029Z,25.70
2018-03-24T06:22:28.166Z,24.90
2018-03-24T06:25:02.056Z,24.80
2018-03-24T06:27:36.718Z,24.53
2018-03-24T06:33:13.731Z,25.37
2018-03-24T06:35:49.719Z,25.33
2018-03-24T06:38:24.079Z,25.23
2018-03-24T06:40:57.977Z,24.60
2018-03-24T06:43:32.546Z,26.30
2018-03-24T06:46:06.436Z,23.83
2018-03-24T06:48:40.102Z,23.10
2018-03-24T06:51:13.879Z,24.37
2018-03-24T06:53:47.708Z,23.90
2018-03-24T06:56:21.399Z,24.93
2018-03-24T06:58:55.059Z,28.40
2018-03-24T07:01:28.802Z,22.93
2018-03-24T07:04:03.398Z,30.07
2018-03-24T07:06:38.132Z,23.90
2018-03-24T07:09:12.291Z,25.00
2018-03-24T07:14:44.635Z,23.80
2018-03-24T07:17:19.448Z,24.63
2018-03-24T07:19:53.919Z,23.37
2018-03-24T07:22:28.476Z,23.03
2018-03-24T07:25:02.361Z,22.97
2018-03-24T07:27:36.928Z,22.33
2018-03-24T07:30:11.071Z,22.87
2018-03-24T07:32:44.792Z,24.00
2018-03-24T07:35:19.361Z,24.00
2018-03-24T07:37:53.399Z,23.10
2018-03-24T07:40:27.225Z,25.17
2018-03-24T07:43:01.008Z,23.30
2018-03-24T07:45:35.513Z,25.27
2018-03-24T07:48:09.569Z,29.00
2018-03-24T07:50:43.949Z,24.93
2018-03-24T07:53:18.051Z,23.00
2018-03-24T07:55:52.384Z,23.93
2018-03-24T07:58:26.397Z,23.07
2018-03-24T08:01:01.244Z,25.60
2018-03-24T08:03:36.137Z,25.17
2018-03-24T08:06:11.013Z,26.03
2018-03-24T08:08:44.950Z,24.03
2018-03-24T08:11:19.620Z,23.50
2018-03-24T08:13:54.764Z,24.83
2018-03-24T08:16:28.903Z,26.93
2018-03-24T08:19:03.396Z,25.47
2018-03-24T08:21:37.591Z,24.93
2018-03-24T08:24:11.412Z,25.30
2018-03-24T08:26:45.048Z,24.03
2018-03-24T08:29:18.991Z,26.83
2018-03-24T08:31:52.638Z,25.17
2018-03-24T08:34:26.294Z,24.60
2018-03-24T08:37:00.846Z,27.20
2018-03-24T08:39:34.912Z,24.60
2018-03-24T08:42:08.816Z,26.20
2018-03-24T08:44:43.578Z,28.33
2018-03-24T08:47:17.585Z,24.90
2018-03-24T08:49:51.396Z,27.03
2018-03-24T08:52:24.951Z,27.00
2018-03-24T08:54:58.784Z,24.83
2018-03-24T08:57:32.374Z,25.70
2018-03-24T09:00:06.031Z,26.40
2018-03-24T09:02:39.818Z,26.03
2018-03-24T09:05:13.587Z,26.10
2018-03-24T09:07:47.381Z,26.37
2018-03-24T09:10:21.259Z,26.83
2018-03-24T09:12:55.224Z,26.57
2018-03-24T09:15:28.957Z,27.00
2018-03-24T09:18:02.784Z,27.10
2018-03-24T09:20:40.592Z,28.17
2018-03-24T09:23:14.473Z,26.27
2018-03-24T09:25:48.110Z,29.43
2018-03-24T09:28:22.693Z,30.20
2018-03-24T09:30:56.747Z,26.47
2018-03-24T09:33:30.535Z,26.43
2018-03-24T09:36:04.485Z,28.70
2018-03-24T09:38:38.129Z,27.10
2018-03-24T09:41:11.779Z,26.07
2018-03-24T09:43:46.363Z,27.53
2018-03-24T09:46:20.732Z,27.27
2018-03-24T09:48:55.123Z,29.00
2018-03-24T09:51:28.917Z,27.20
2018-03-24T09:54:03.520Z,25.93
2018-03-24T09:56:37.647Z,24.50
2018-03-24T09:59:11.518Z,26.20
2018-03-24T10:01:46.027Z,23.77
2018-03-24T10:04:20.528Z,29.10
2018-03-24T10:06:54.519Z,24.70
2018-03-24T10:09:28.325Z,23.57
2018-03-24T10:12:02.799Z,23.60
2018-03-24T10:14:36.786Z,22.23
2018-03-24T10:17:10.595Z,21.47
2018-03-24T10:19:44.283Z,20.67
2018-03-24T10:25:14.143Z,23.23
2018-03-24T10:27:47.944Z,22.47
2018-03-24T10:30:22.597Z,21.17
2018-03-24T10:32:57.762Z,19.53
2018-03-24T10:35:32.005Z,21.93
2018-03-24T10:38:05.795Z,20.53
2018-03-24T10:40:40.491Z,21.57
2018-03-24T10:46:17.860Z,22.47
2018-03-24T10:48:51.492Z,22.40
2018-03-24T10:51:26.117Z,21.50
2018-03-24T10:54:00.405Z,20.03
2018-03-24T10:56:34.042Z,18.27
2018-03-24T10:59:08.786Z,20.37
2018-03-24T11:01:42.877Z,19.70
2018-03-24T11:04:16.653Z,20.33
2018-03-24T11:06:50.648Z,18.83
2018-03-24T11:09:24.874Z,18.50
2018-03-24T11:11:59.669Z,15.60
2018-03-24T11:14:34.404Z,16.63
2018-03-24T11:17:09.137Z,14.30
2018-03-24T11:19:43.225Z,16.50
2018-03-24T11:22:17.963Z,16.33
2018-03-24T11:24:52.103Z,16.17
2018-03-24T11:27:25.971Z,14.80
2018-03-24T11:30:00.559Z,12.73
2018-03-24T11:32:35.128Z,13.77
2018-03-24T11:35:09.727Z,6.57
2018-03-24T11:37:44.583Z,14.97
2018-03-24T11:40:18.531Z,14.17
2018-03-24T11:42:52.492Z,17.17
2018-03-24T11:45:27.388Z,17.53
2018-03-24T11:48:01.385Z,16.37
2018-03-24T11:50:35.286Z,18.57
2018-03-24T11:53:08.966Z,17.17
2018-03-24T11:55:42.587Z,17.50
2018-03-24T11:58:16.988Z,16.07
2018-03-24T12:00:51.179Z,15.57
2018-03-24T12:03:24.825Z,10.30
2018-03-24T12:05:59.942Z,13.87
2018-03-24T12:08:34.775Z,14.60
2018-03-24T12:11:09.136Z,13.30
2018-03-24T12:13:43.674Z,14.10
2018-03-24T12:16:17.879Z,13.70
2018-03-24T12:18:51.695Z,13.07
2018-03-24T12:21:25.573Z,13.33
2018-03-24T12:23:59.343Z,14.10
2018-03-24T12:26:33.035Z,13.00
2018-03-24T12:29:07.870Z,13.33
2018-03-24T12:31:42.056Z,13.20
2018-03-24T12:34:16.108Z,11.87
2018-03-24T12:36:50.082Z,11.97
2018-03-24T12:39:23.966Z,13.33
2018-03-24T12:41:57.755Z,13.47
2018-03-24T12:44:32.352Z,13.80
2018-03-24T12:47:06.489Z,12.90
2018-03-24T12:49:40.260Z,12.93
2018-03-24T12:52:14.800Z,12.27
2018-03-24T12:54:48.782Z,13.40
2018-03-24T12:57:23.423Z,13.57
2018-03-24T12:59:58.348Z,12.20
2018-03-24T13:02:32.603Z,15.03
2018-03-24T13:05:06.380Z,14.87
2018-03-24T13:07:40.859Z,13.10
2018-03-24T13:10:16.510Z,13.93
2018-03-24T13:12:50.395Z,14.93
2018-03-24T13:15:24.497Z,12.50
2018-03-24T13:17:59.407Z,14.20
2018-03-24T13:20:33.474Z,13.13
2018-03-24T13:23:07.935Z,13.40
2018-03-24T13:25:42.550Z,11.83
2018-03-24T13:28:16.265Z,13.07
2018-03-24T13:30:51.091Z,13.37
2018-03-24T13:33:25.161Z,13.60
2018-03-24T13:35:59.913Z,12.63
2018-03-24T13:38:34.964Z,13.00
2018-03-24T13:41:09.063Z,13.07
2018-03-24T13:43:43.241Z,12.57
2018-03-24T13:46:17.728Z,12.33
2018-03-24T13:48:52.751Z,12.60
2018-03-24T13:51:26.571Z,13.17
2018-03-24T13:54:01.611Z,13.33
2018-03-24T13:56:35.963Z,12.60
2018-03-24T13:59:09.599Z,13.37
2018-03-24T14:01:43.416Z,12.97
2018-03-24T14:04:17.719Z,12.37
2018-03-24T14:06:51.432Z,13.23
2018-03-24T14:09:25.027Z,11.90
2018-03-24T14:11:58.556Z,14.00
2018-03-24T14:14:53.309Z,12.80
2018-03-24T14:17:26.898Z,11.70
2018-03-24T14:20:49.625Z,12.67
2018-03-24T14:23:23.473Z,11.93
2018-03-24T14:25:58.337Z,14.57
2018-03-24T14:29:08.490Z,13.07
2018-03-24T14:32:56.232Z,13.23
2018-03-24T14:35:30.773Z,14.10
2018-03-24T14:38:04.512Z,13.23
2018-03-24T14:40:38.873Z,14.30
2018-03-24T14:43:12.555Z,13.17
2018-03-24T14:45:46.164Z,13.70
2018-03-24T14:48:19.784Z,13.60
2018-03-24T14:51:07.576Z,12.30
2018-03-24T14:53:35.041Z,12.60
2018-03-24T14:56:02.513Z,12.63
2018-03-24T14:58:29.968Z,12.03
2018-03-24T15:00:57.462Z,11.03
2018-03-24T15:03:24.895Z,11.23
2018-03-24T15:05:52.339Z,13.60
2018-03-24T15:08:19.800Z,12.20
2018-03-24T15:10:47.249Z,10.50
2018-03-24T15:13:14.723Z,12.70
2018-03-24T15:15:42.174Z,13.20
2018-03-24T15:18:09.647Z,12.83
2018-03-24T15:20:37.142Z,13.63
2018-03-24T15:23:04.586Z,12.70
2018-03-24T15:25:32.834Z,14.60
2018-03-24T15:28:00.284Z,14.93
2018-03-24T15:30:39.792Z,14.90
2018-03-24T15:33:19.154Z,12.10
2018-03-24T15:35:58.546Z,13.20
2018-03-24T15:38:26.763Z,13.90
2018-03-24T15:40:54.232Z,14.90
2018-03-24T15:43:21.680Z,15.60
2018-03-24T15:45:49.213Z,11.80
2018-03-24T15:48:16.647Z,13.70
2018-03-24T15:50:44.162Z,13.83
2018-03-24T15:53:11.610Z,14.53
2018-03-24T15:55:39.085Z,15.27
2018-03-24T15:58:06.556Z,14.70
2018-03-24T16:00:34.784Z,15.53
2018-03-24T16:03:02.254Z,15.37
2018-03-24T16:05:29.725Z,14.67
2018-03-24T16:07:57.171Z,16.77
2018-03-24T16:10:24.675Z,15.60
2018-03-24T16:12:52.899Z,15.17
2018-03-24T16:15:20.467Z,14.40
2018-03-24T16:17:47.812Z,15.40
2018-03-24T16:20:16.033Z,15.10
2018-03-24T16:22:44.275Z,14.57
2018-03-24T16:25:11.708Z,14.30
2018-03-24T16:27:39.230Z,15.20
2018-03-24T16:30:07.430Z,16.53
2018-03-24T16:32:35.803Z,15.90
2018-03-24T16:35:03.272Z,15.77
2018-03-24T16:37:30.741Z,15.47
2018-03-24T16:39:58.604Z,14.17
2018-03-24T16:42:26.057Z,14.87
2018-03-24T16:44:54.240Z,14.73
2018-03-24T16:47:21.713Z,12.80
2018-03-24T16:49:49.204Z,15.07
2018-03-24T16:52:17.443Z,15.13
2018-03-24T16:54:44.904Z,15.77
2018-03-24T16:57:12.378Z,14.07
2018-03-24T16:59:39.845Z,15.93
2018-03-24T17:02:07.316Z,14.10
2018-03-24T17:04:34.779Z,13.43
2018-03-24T17:07:02.237Z,14.03
2018-03-24T17:09:30.618Z,13.47
2018-03-24T17:11:58.841Z,13.07
2018-03-24T17:14:27.791Z,15.93
2018-03-24T17:16:55.284Z,14.87
2018-03-24T17:19:22.735Z,17.60
2018-03-24T17:21:50.205Z,15.87
2018-03-24T17:24:17.693Z,17.30
2018-03-24T17:26:45.136Z,14.83
2018-03-24T17:29:12.604Z,15.87
2018-03-24T17:31:40.816Z,17.10
2018-03-24T17:34:08.283Z,15.73
2018-03-24T17:36:35.751Z,17.50
2018-03-24T17:39:03.215Z,14.10
2018-03-24T17:41:31.605Z,16.77
2018-03-24T17:43:59.055Z,16.60
2018-03-24T17:46:26.531Z,18.23
2018-03-24T17:48:54.038Z,15.67
2018-03-24T17:51:21.477Z,13.37
2018-03-24T17:53:48.949Z,16.63
2018-03-24T17:56:16.515Z,16.30
2018-03-24T17:58:44.078Z,16.47
2018-03-24T18:01:11.527Z,15.00
2018-03-24T18:03:38.988Z,15.67
2018-03-24T18:06:06.460Z,17.00
2018-03-24T18:08:33.950Z,16.13
2018-03-24T18:11:01.419Z,16.80
2018-03-24T18:13:30.478Z,14.40
2018-03-24T18:15:57.919Z,15.97
2018-03-24T18:18:25.399Z,18.60
2018-03-24T18:20:52.926Z,15.30
2018-03-24T18:23:20.362Z,14.87
2018-03-24T18:25:48.593Z,15.57
2018-03-24T18:28:16.114Z,16.70
2018-03-24T18:30:43.590Z,17.40
2018-03-24T18:33:11.848Z,15.70
2018-03-24T18:35:39.316Z,16.43
2018-03-24T18:38:06.770Z,17.27
2018-03-24T18:40:34.273Z,16.20
2018-03-24T18:43:01.725Z,16.77
2018-03-24T18:45:29.225Z,17.33
2018-03-24T18:47:56.675Z,16.97
2018-03-24T18:50:24.149Z,17.43
2018-03-24T18:52:51.651Z,17.17
2018-03-24T18:55:19.099Z,14.77
2018-03-24T18:57:46.591Z,16.60
2018-03-24T19:00:14.807Z,16.17
2018-03-24T19:02:42.302Z,17.30
2018-03-24T19:05:09.785Z,17.03
2018-03-24T19:07:38.000Z,16.30
2018-03-24T19:10:05.622Z,16.47
2018-03-24T19:12:33.106Z,17.20
2018-03-24T19:15:00.559Z,16.20
2018-03-24T19:17:28.022Z,16.77
2018-03-24T19:19:55.515Z,17.30
2018-03-24T19:22:23.038Z,16.10
2018-03-24T19:24:50.479Z,15.17
2018-03-24T19:27:17.973Z,16.07
2018-03-24T19:29:45.463Z,16.30
2018-03-24T19:32:13.736Z,18.47
2018-03-24T19:34:41.956Z,16.47
2018-03-24T19:37:09.441Z,17.23
2018-03-24T19:39:36.916Z,14.90
2018-03-24T19:42:04.414Z,16.50
2018-03-24T19:44:31.889Z,16.30
2018-03-24T19:46:59.372Z,15.50
2018-03-24T19:49:26.857Z,16.10
2018-03-24T19:51:54.311Z,17.13
2018-03-24T19:54:21.798Z,15.77
2018-03-24T19:56:50.045Z,16.80
2018-03-24T19:59:17.492Z,16.67
2018-03-24T20:01:44.968Z,16.07
2018-03-24T20:04:12.427Z,12.97
2018-03-24T20:06:41.040Z,15.30
2018-03-24T20:09:08.511Z,16.90
2018-03-24T20:11:35.967Z,16.90
2018-03-24T20:14:03.485Z,13.97
2018-03-24T20:16:31.029Z,14.70
2018-03-24T20:18:58.484Z,14.93
2018-03-24T20:21:25.938Z,15.20
2018-03-24T20:23:53.376Z,13.20
2018-03-24T20:26:20.847Z,14.70
2018-03-24T20:28:48.292Z,13.90
2018-03-24T20:31:15.784Z,14.23
2018-03-24T20:33:43.222Z,13.13
2018-03-24T20:36:10.688Z,14.50
2018-03-24T20:38:38.125Z,14.37
2018-03-24T20:41:05.616Z,15.10
2018-03-24T20:43:33.849Z,12.87
2018-03-24T20:46:01.322Z,13.63
2018-03-24T20:48:28.785Z,14.63
2018-03-24T20:50:56.243Z,12.20
2018-03-24T20:53:23.693Z,13.80
2018-03-24T20:55:51.163Z,14.27
2018-03-24T20:58:18.607Z,12.43
2018-03-24T21:00:46.868Z,14.97
2018-03-24T21:03:14.298Z,13.63
2018-03-24T21:05:41.766Z,14.70
2018-03-24T21:08:09.237Z,13.60
2018-03-24T21:10:36.699Z,14.90
2018-03-24T21:13:04.159Z,14.57
2018-03-24T21:15:31.634Z,15.17
2018-03-24T21:17:59.071Z,13.70
2018-03-24T21:20:26.528Z,14.60
2018-03-24T21:22:54.778Z,14.67
2018-03-24T21:25:22.253Z,14.17
2018-03-24T21:27:49.698Z,14.50
2018-03-24T21:30:17.200Z,15.80
2018-03-24T21:32:44.668Z,14.57
2018-03-24T21:35:12.926Z,14.60
2018-03-24T21:37:40.393Z,13.93
2018-03-24T21:40:07.864Z,14.77
2018-03-24T21:42:36.095Z,14.00
2018-03-24T21:45:03.908Z,13.97
2018-03-24T21:47:32.112Z,14.30
2018-03-24T21:49:59.585Z,16.10
2018-03-24T21:52:27.040Z,13.30
2018-03-24T21:54:54.508Z,13.50
2018-03-24T21:57:21.959Z,13.70
2018-03-24T21:59:49.424Z,13.67
2018-03-24T22:02:16.879Z,12.63
2018-03-24T22:04:44.353Z,13.27
2018-03-24T22:07:11.815Z,9.57
2018-03-24T22:09:39.266Z,13.70
2018-03-24T22:12:06.729Z,12.07
2018-03-24T22:14:34.195Z,13.07
2018-03-24T22:17:01.659Z,15.10
2018-03-24T22:19:29.100Z,14.70
2018-03-24T22:21:56.571Z,13.50
2018-03-24T22:24:24.011Z,12.63
2018-03-24T22:26:51.488Z,13.83
2018-03-24T22:29:20.613Z,13.03
2018-03-24T22:31:48.088Z,14.60
2018-03-24T22:34:15.558Z,13.40
2018-03-24T22:36:43.004Z,15.10
2018-03-24T22:39:10.479Z,14.27
2018-03-24T22:41:38.013Z,12.83
2018-03-24T22:44:05.473Z,15.40
2018-03-24T22:46:32.928Z,13.33
2018-03-24T22:49:00.399Z,12.47
2018-03-24T22:51:27.850Z,14.13
2018-03-24T22:53:55.310Z,14.33
2018-03-24T22:56:22.751Z,15.50
2018-03-24T22:58:50.241Z,13.50
2018-03-24T23:01:21.159Z,13.30
2018-03-24T23:03:48.722Z,13.77
2018-03-24T23:06:16.187Z,14.17
2018-03-24T23:08:43.695Z,14.63
2018-03-24T23:11:11.124Z,14.70
2018-03-24T23:13:38.642Z,14.00
2018-03-24T23:16:06.080Z,13.17
2018-03-24T23:18:33.511Z,16.73
2018-03-24T23:21:01.749Z,14.87
2018-03-24T23:23:29.205Z,12.00
2018-03-24T23:25:56.684Z,13.83
2018-03-24T23:28:24.120Z,15.43
2018-03-24T23:30:51.574Z,14.53
2018-03-24T23:33:19.041Z,15.93
2018-03-24T23:35:46.498Z,15.37
2018-03-24T23:38:13.989Z,16.90
2018-03-24T23:40:41.479Z,16.23
2018-03-24T23:43:08.922Z,16.10
2018-03-24T23:45:36.413Z,14.97
2018-03-24T23:48:03.858Z,16.10
2018-03-24T23:50:31.307Z,16.30
2018-03-24T23:52:58.817Z,14.23
2018-03-24T23:55:26.260Z,16.10
2018-03-24T23:57:53.725Z,17.17
